Time;durP1;ratioP1;P1;durP2;ratioP2;P2;SDS_P1;SDS_P2;PMS_P1;PMS_P2;Temp;Humidity;BMP_temperature;BMP_pressure;BME280_temperature;BME280_humidity;BME280_pressure;Samples;Min_cycle;Max_cycle;Signal;HPM_P1;HPM_P2
2023/03/31 00:00:52;;;;;;;19.58;6.18;;;;;;;8.86;100.00;99661.97;4923244;29;20043;-78
2023/03/31 00:03:21;;;;;;;22.08;6.65;;;;;;;8.90;100.00;99658.94;4917978;29;20677;-77
2023/03/31 00:05:47;;;;;;;24.52;6.35;;;;;;;8.90;100.00;99653.59;4934458;29;20063;-78
2023/03/31 00:08:13;;;;;;;;;;;;;;;8.93;100.00;99661.25;4934336;29;20098;-78
2023/03/31 00:10:45;;;;;;;21.50;6.55;;;;;;;8.90;100.00;99641.16;4923170;29;19914;-77
2023/03/31 00:13:11;;;;;;;22.77;7.38;;;;;;;8.96;100.00;99655.56;4916335;29;20036;-78
2023/03/31 00:15:37;;;;;;;26.67;7.72;;;;;;;8.95;100.00;99649.41;4938083;28;20046;-79
2023/03/31 00:18:02;;;;;;;23.43;6.20;;;;;;;9.04;100.00;99644.88;4938992;29;20047;-79
2023/03/31 00:20:28;;;;;;;29.75;7.53;;;;;;;8.94;100.00;99646.94;4936363;29;20037;-77
2023/03/31 00:22:56;;;;;;;18.48;6.47;;;;;;;8.93;100.00;99645.28;4942546;28;20553;-77
2023/03/31 00:25:22;;;;;;;26.95;7.53;;;;;;;8.94;100.00;99647.75;4917522;29;20494;-77
2023/03/31 00:27:49;;;;;;;22.88;6.57;;;;;;;8.98;100.00;99637.59;4931066;29;20079;-78
2023/03/31 00:30:14;;;;;;;27.27;8.45;;;;;;;8.99;100.00;99633.91;4924543;29;20454;-78
2023/03/31 00:32:40;;;;;;;27.48;8.20;;;;;;;9.01;100.00;99635.41;4936935;28;20043;-77
2023/03/31 00:35:06;;;;;;;30.77;7.90;;;;;;;8.94;100.00;99625.63;4939363;29;20036;-78
2023/03/31 00:37:32;;;;;;;39.72;8.65;;;;;;;9.00;100.00;99625.75;4938078;28;20641;-77
2023/03/31 00:39:58;;;;;;;23.98;7.63;;;;;;;8.93;100.00;99619.50;4931654;29;20048;-77
2023/03/31 00:42:23;;;;;;;29.40;8.23;;;;;;;8.94;100.00;99625.63;4939384;28;20034;-78
2023/03/31 00:45:13;;;;;;;30.40;9.03;;;;;;;9.04;100.00;99627.06;4939305;29;20126;-77
2023/03/31 00:48:09;;;;;;;26.85;8.82;;;;;;;8.99;100.00;99629.44;4931108;29;20047;-77
2023/03/31 00:50:41;;;;;;;29.23;8.32;;;;;;;9.02;100.00;99622.91;4922917;29;20074;-77
2023/03/31 00:53:15;;;;;;;32.28;10.10;;;;;;;9.10;100.00;99620.16;4939387;28;20040;-78
2023/03/31 00:55:44;;;;;;;26.30;8.30;;;;;;;9.03;100.00;99616.56;4936724;29;20401;-77
2023/03/31 00:58:13;;;;;;;26.65;9.85;;;;;;;8.98;100.00;99613.63;4930874;29;20030;-79
2023/03/31 01:00:41;;;;;;;37.90;9.45;;;;;;;9.00;100.00;99614.28;4921867;29;20035;-77
2023/03/31 01:03:08;;;;;;;34.67;10.18;;;;;;;9.05;100.00;99617.22;4930487;29;20393;-78
2023/03/31 01:05:46;;;;;;;32.55;9.45;;;;;;;9.01;100.00;99611.44;4936737;28;20046;-78
2023/03/31 01:08:14;;;;;;;41.65;10.48;;;;;;;8.94;100.00;99599.00;4917069;29;20095;-77
2023/03/31 01:10:44;;;;;;;41.30;11.32;;;;;;;8.95;100.00;99614.00;4939304;28;20046;-78
2023/03/31 01:13:14;;;;;;;38.80;9.88;;;;;;;8.95;100.00;99608.66;4915025;29;20042;-77
2023/03/31 01:15:41;;;;;;;38.83;11.50;;;;;;;8.95;100.00;99601.50;4936410;29;20035;-77
2023/03/31 01:18:09;;;;;;;37.83;11.05;;;;;;;8.92;100.00;99601.88;4938368;29;20032;-78
2023/03/31 01:21:06;;;;;;;42.45;11.20;;;;;;;8.95;100.00;99601.50;4936658;28;20118;-78
2023/03/31 01:23:59;;;;;;;38.15;10.10;;;;;;;9.00;100.00;99599.13;4913139;29;20545;-78
2023/03/31 01:26:43;;;;;;;37.83;9.95;;;;;;;8.97;100.00;99580.03;4935052;29;20035;-77
2023/03/31 01:29:26;;;;;;;27.65;10.07;;;;;;;8.98;100.00;99589.66;4928257;29;20039;-78
2023/03/31 01:31:55;;;;;;;34.33;9.50;;;;;;;8.89;100.00;99583.56;4934964;29;20040;-77
2023/03/31 01:34:42;;;;;;;29.60;9.73;;;;;;;8.93;100.00;99584.88;4916479;29;20028;-78
2023/03/31 01:37:39;;;;;;;49.40;10.85;;;;;;;8.92;100.00;99582.38;4914333;29;20533;-79
2023/03/31 01:40:13;;;;;;;34.38;10.80;;;;;;;8.91;100.00;99578.91;4913130;29;20048;-78
2023/03/31 01:42:51;;;;;;;40.80;10.10;;;;;;;8.91;100.00;99583.41;4936096;28;20128;-77
2023/03/31 01:45:26;;;;;;;40.72;8.63;;;;;;;8.85;100.00;99575.16;4915534;29;20070;-77
2023/03/31 01:48:01;;;;;;;41.15;10.80;;;;;;;8.89;100.00;99575.59;4936701;28;20170;-78
2023/03/31 01:50:32;;;;;;;22.83;6.45;;;;;;;8.86;100.00;99571.47;4935516;29;20736;-80
2023/03/31 01:53:23;;;;;;;51.03;11.02;;;;;;;8.90;100.00;99566.63;4931143;29;20036;-77
2023/03/31 01:56:04;;;;;;;37.42;9.85;;;;;;;8.91;100.00;99572.75;4923814;29;20040;-77
2023/03/31 01:58:43;;;;;;;51.85;10.02;;;;;;;8.85;100.00;99553.84;4907034;29;20143;-78
2023/03/31 02:01:20;;;;;;;29.80;9.07;;;;;;;8.87;100.00;99554.50;4914411;29;20119;-77
2023/03/31 02:03:53;;;;;;;31.15;8.65;;;;;;;8.84;100.00;99552.19;4934858;28;20043;-78
2023/03/31 02:06:23;;;;;;;36.05;9.80;;;;;;;8.85;100.00;99559.19;4923546;29;20047;-78
2023/03/31 02:08:58;;;;;;;37.50;7.13;;;;;;;8.85;100.00;99559.19;4926372;29;20103;-77
2023/03/31 02:11:24;;;;;;;35.33;8.63;;;;;;;8.88;100.00;99548.16;4937435;29;20493;-77
2023/03/31 02:13:54;;;;;;;24.83;6.45;;;;;;;8.92;100.00;99547.78;4928973;29;20028;-78
2023/03/31 02:16:24;;;;;;;37.33;9.05;;;;;;;8.92;100.00;99540.66;4931576;29;20035;-78
2023/03/31 02:19:01;;;;;;;30.30;6.57;;;;;;;8.96;100.00;99538.44;4910576;29;20052;-77
2023/03/31 02:21:36;;;;;;;27.63;7.63;;;;;;;8.93;100.00;99528.16;4913210;29;20672;-77
2023/03/31 02:24:11;;;;;;;26.92;7.97;;;;;;;8.92;100.00;99527.34;4922641;29;20039;-76
2023/03/31 02:26:42;;;;;;;28.67;8.57;;;;;;;8.92;100.00;99526.50;4937664;29;20456;-78
2023/03/31 02:29:08;;;;;;;28.85;7.22;;;;;;;8.91;100.00;99519.53;4913184;29;20031;-78
2023/03/31 02:31:46;;;;;;;32.97;9.33;;;;;;;8.99;100.00;99525.59;4935736;28;20024;-77
2023/03/31 02:34:12;;;;;;;31.17;8.00;;;;;;;8.95;100.00;99520.81;4914136;29;20066;-79
2023/03/31 02:36:40;;;;;;;35.17;8.73;;;;;;;8.95;100.00;99518.16;4934985;29;20130;-78
2023/03/31 02:39:10;;;;;;;33.88;7.43;;;;;;;8.95;100.00;99520.81;4930618;29;20131;-76
2023/03/31 02:41:36;;;;;;;34.38;8.00;;;;;;;8.92;100.00;99511.38;4920901;29;20470;-78
2023/03/31 02:44:01;;;;;;;36.92;8.07;;;;;;;8.93;100.00;99512.19;4930213;29;20059;-78
2023/03/31 02:46:28;;;;;;;32.83;7.68;;;;;;;8.92;100.00;99506.03;4936951;29;20070;-79
2023/03/31 02:49:00;;;;;;;32.97;7.40;;;;;;;8.90;100.00;99494.75;4928976;29;20036;-77
2023/03/31 02:52:03;;;;;;;23.30;6.65;;;;;;;8.89;100.00;99493.09;4936670;29;20046;-77
2023/03/31 02:54:45;;;;;;;35.70;8.75;;;;;;;8.92;100.00;99491.88;4913712;29;20034;-77
2023/03/31 02:57:45;;;;;;;35.22;7.80;;;;;;;8.97;100.00;99486.88;4929330;29;20379;-79
2023/03/31 03:00:34;;;;;;;34.30;8.55;;;;;;;8.97;100.00;99479.69;4913972;29;20043;-78
2023/03/31 03:03:23;;;;;;;37.05;10.10;;;;;;;8.97;100.00;99468.25;4935141;28;20047;-78
2023/03/31 03:06:12;;;;;;;27.17;8.40;;;;;;;8.86;100.00;99445.56;4932255;29;20045;-77
2023/03/31 03:09:06;;;;;;;41.75;10.23;;;;;;;8.87;100.00;99458.69;4935139;29;20040;-77
2023/03/31 03:11:58;;;;;;;39.70;9.23;;;;;;;8.83;100.00;99453.91;4934713;29;20039;-78
2023/03/31 03:14:46;;;;;;;32.17;8.40;;;;;;;8.81;100.00;99451.41;4924955;29;20039;-77
2023/03/31 03:17:25;;;;;;;38.80;9.23;;;;;;;8.84;100.00;99451.03;4918201;29;20401;-77
2023/03/31 03:19:59;;;;;;;41.28;9.00;;;;;;;8.85;100.00;99450.06;4929373;29;20383;-76
2023/03/31 03:22:24;;;;;;;32.92;8.45;;;;;;;8.82;100.00;99450.41;4936623;29;20043;-77
2023/03/31 03:24:51;;;;;;;24.73;8.27;;;;;;;8.82;100.00;99445.06;4928381;29;20028;-77
2023/03/31 03:27:17;;;;;;;27.75;7.95;;;;;;;8.78;100.00;99441.16;4930808;29;20501;-76
2023/03/31 03:29:42;;;;;;;33.85;8.48;;;;;;;8.72;100.00;99430.41;4933758;28;20039;-78
2023/03/31 03:32:09;;;;;;;30.40;7.45;;;;;;;8.76;100.00;99439.69;4920104;29;20044;-79
2023/03/31 03:34:34;;;;;;;33.35;7.88;;;;;;;8.73;100.00;99422.22;4920522;29;20024;-77
2023/03/31 03:36:59;;;;;;;36.50;8.07;;;;;;;8.72;100.00;99425.09;4932479;29;20076;-76
2023/03/31 03:39:25;;;;;;;29.83;8.47;;;;;;;8.72;100.00;99419.75;4921405;29;20047;-76
2023/03/31 03:41:50;;;;;;;49.03;9.27;;;;;;;8.71;100.00;99418.94;4919811;29;20424;-78
2023/03/31 03:44:15;;;;;;;35.37;7.07;;;;;;;8.78;100.00;99425.19;4922170;29;20039;-76
2023/03/31 03:46:41;;;;;;;35.13;8.10;;;;;;;8.72;100.00;99404.63;4934390;29;20046;-77
2023/03/31 03:49:06;;;;;;;29.97;7.30;;;;;;;8.71;100.00;99405.63;4930180;29;20441;-78
2023/03/31 03:51:31;;;;;;;31.60;6.67;;;;;;;8.79;100.00;99408.19;4923688;29;20329;-77
2023/03/31 03:53:57;;;;;;;34.80;9.53;;;;;;;8.79;100.00;99410.84;4929226;29;20044;-80
2023/03/31 03:56:22;;;;;;;31.25;7.05;;;;;;;8.79;100.00;99400.22;4927389;28;20091;-78
2023/03/31 03:58:48;;;;;;;32.47;6.93;;;;;;;8.83;100.00;99400.69;4936352;28;20039;-77
2023/03/31 04:01:13;;;;;;;30.80;6.17;;;;;;;8.74;100.00;99389.28;4936802;29;20166;-76
2023/03/31 04:03:39;;;;;;;39.30;8.20;;;;;;;8.80;100.00;99385.06;4934367;28;20039;-79
2023/03/31 04:06:04;;;;;;;41.17;8.98;;;;;;;8.75;100.00;99380.28;4930262;29;20032;-78
2023/03/31 04:08:30;;;;;;;36.33;6.47;;;;;;;8.75;100.00;99384.78;4935094;29;20506;-76
2023/03/31 04:10:56;;;;;;;22.27;5.65;;;;;;;8.72;100.00;99383.31;4937489;28;20442;-76
2023/03/31 04:13:21;;;;;;;44.03;8.60;;;;;;;8.67;100.00;99375.06;4925492;29;20545;-79
2023/03/31 04:15:46;;;;;;;42.53;8.97;;;;;;;8.67;100.00;99372.41;4934788;29;20339;-78
2023/03/31 04:18:21;;;;;;;44.73;7.57;;;;;;;8.72;100.00;99378.00;4925045;29;20549;-79
2023/03/31 04:20:53;;;;;;;42.58;6.95;;;;;;;8.73;100.00;99368.19;4934983;29;20051;-79
2023/03/31 04:23:22;;;;;;;36.95;6.85;;;;;;;8.72;100.00;99369.19;4933711;29;20039;-76
2023/03/31 04:25:49;;;;;;;35.78;6.93;;;;;;;8.76;100.00;99375.81;4937086;29;20467;-80
2023/03/31 04:28:15;;;;;;;31.05;7.05;;;;;;;8.70;100.00;99365.91;4924719;29;20079;-79
2023/03/31 04:30:40;;;;;;;47.97;7.47;;;;;;;8.71;100.00;99368.38;4936894;28;20031;-78
2023/03/31 04:33:06;;;;;;;36.00;6.93;;;;;;;8.81;100.00;99371.56;4927208;29;20532;-77
2023/03/31 04:35:48;;;;;;;35.38;7.65;;;;;;;8.82;100.00;99362.56;4937961;29;20067;-76
2023/03/31 04:38:19;;;;;;;29.70;6.32;;;;;;;8.82;100.00;99359.91;4931673;29;20039;-76
2023/03/31 04:40:49;;;;;;;34.45;6.20;;;;;;;8.79;100.00;99356.81;4936774;29;20122;-76
2023/03/31 04:43:15;;;;;;;37.22;5.53;;;;;;;8.83;100.00;99353.59;4939787;28;20122;-77
2023/03/31 04:45:42;;;;;;;25.23;6.45;;;;;;;8.81;100.00;99349.47;4936818;28;20086;-76
2023/03/31 04:48:07;;;;;;;27.20;6.90;;;;;;;8.84;100.00;99351.75;4915058;29;20043;-79
2023/03/31 04:50:33;;;;;;;33.83;7.35;;;;;;;8.82;100.00;99346.59;4937849;29;20028;-77
2023/03/31 04:52:58;;;;;;;31.35;6.57;;;;;;;8.76;100.00;99347.38;4932030;29;20078;-76
2023/03/31 04:55:24;;;;;;;32.43;7.23;;;;;;;8.76;100.00;99344.69;4938823;29;20046;-77
2023/03/31 04:57:50;;;;;;;32.22;7.53;;;;;;;8.64;100.00;99328.38;4933896;29;20033;-77
2023/03/31 05:00:16;;;;;;;34.60;7.25;;;;;;;8.75;100.00;99345.69;4938812;29;20046;-76
2023/03/31 05:02:42;;;;;;;;;;;;;;;8.79;100.00;99348.81;4943203;28;20043;-80
2023/03/31 05:05:07;;;;;;;31.15;7.63;;;;;;;8.81;100.00;99334.31;4945902;29;20624;-78
2023/03/31 05:07:33;;;;;;;34.38;7.30;;;;;;;8.81;100.00;99339.66;4922337;29;20030;-77
2023/03/31 05:09:58;;;;;;;31.67;7.23;;;;;;;8.76;100.00;99336.72;4939111;29;20036;-77
2023/03/31 05:12:24;;;;;;;28.93;6.43;;;;;;;8.75;100.00;99321.75;4943131;29;20476;-77
2023/03/31 05:14:50;;;;;;;29.85;7.97;;;;;;;8.80;100.00;99330.03;4931286;29;20024;-77
2023/03/31 05:17:16;;;;;;;40.50;8.47;;;;;;;8.82;100.00;99330.63;4923947;29;20087;-77
2023/03/31 05:19:42;;;;;;;35.25;8.20;;;;;;;8.83;100.00;99337.63;4930547;29;20042;-77
2023/03/31 05:22:10;;;;;;;33.35;6.90;;;;;;;8.90;100.00;99326.22;4928729;29;20043;-77
2023/03/31 05:24:36;;;;;;;35.53;6.93;;;;;;;8.79;100.00;99325.69;4946185;29;20040;-77
2023/03/31 05:27:01;;;;;;;32.27;7.53;;;;;;;8.85;100.00;99330.28;4931086;29;20046;-77
2023/03/31 05:29:27;;;;;;;38.23;7.97;;;;;;;8.91;100.00;99322.56;4923486;29;20449;-79
2023/03/31 05:31:52;;;;;;;29.10;6.30;;;;;;;8.84;100.00;99312.66;4945199;28;20537;-77
2023/03/31 05:34:18;;;;;;;29.20;6.78;;;;;;;8.82;100.00;99319.16;4930222;29;20036;-76
2023/03/31 05:36:46;;;;;;;29.02;8.35;;;;;;;8.78;100.00;99313.41;4928827;29;20494;-77
2023/03/31 05:39:12;;;;;;;37.35;7.05;;;;;;;8.73;100.00;99310.47;4928746;29;20027;-78
2023/03/31 05:41:38;;;;;;;38.90;8.10;;;;;;;8.70;100.00;99315.34;4928946;29;20035;-79
2023/03/31 05:44:03;;;;;;;39.50;8.47;;;;;;;8.64;100.00;99316.91;4931724;29;20049;-78
2023/03/31 05:46:29;;;;;;;38.70;7.00;;;;;;;8.61;100.00;99319.94;4928185;29;20125;-80
2023/03/31 05:48:55;;;;;;;24.53;6.90;;;;;;;8.65;100.00;99329.19;4940632;28;20068;-79
2023/03/31 05:51:21;;;;;;;39.47;9.00;;;;;;;8.66;100.00;99336.16;4924726;29;20286;-79
2023/03/31 05:53:46;;;;;;;32.90;7.70;;;;;;;8.61;100.00;99333.22;4935442;29;20032;-78
2023/03/31 05:56:12;;;;;;;28.30;7.27;;;;;;;8.64;100.00;99338.19;4924722;29;20103;-76
2023/03/31 05:58:38;;;;;;;35.40;8.93;;;;;;;8.64;100.00;99332.88;4924205;29;20139;-78
2023/03/31 06:01:06;;;;;;;43.33;9.88;;;;;;;8.66;100.00;99339.66;4928448;29;20046;-79
2023/03/31 06:03:33;;;;;;;41.30;8.63;;;;;;;8.64;100.00;99324.91;4944249;28;20020;-77
2023/03/31 06:05:58;;;;;;;30.42;8.20;;;;;;;8.65;100.00;99331.84;4934621;29;20067;-78
2023/03/31 06:08:24;;;;;;;36.77;8.23;;;;;;;8.65;100.00;99324.69;4942753;29;20071;-80
2023/03/31 06:10:49;;;;;;;21.95;8.20;;;;;;;8.75;100.00;99329.72;4936143;29;20047;-80
2023/03/31 06:13:15;;;;;;;53.58;9.95;;;;;;;8.73;100.00;99321.09;4943255;28;20553;-80
2023/03/31 06:15:41;;;;;;;42.97;9.77;;;;;;;8.78;100.00;99318.75;4941966;29;20027;-78
2023/03/31 06:18:09;;;;;;;38.17;9.30;;;;;;;8.80;100.00;99316.72;4942546;29;20074;-77
2023/03/31 06:20:35;;;;;;;41.90;10.80;;;;;;;8.75;100.00;99326.25;4926599;29;20527;-78
2023/03/31 06:23:00;;;;;;;;;;;;;;;8.87;100.00;99328.28;4945851;28;20044;-76
2023/03/31 06:25:26;;;;;;;47.47;10.40;;;;;;;8.72;100.00;99314.16;4945611;29;20081;-80
2023/03/31 06:27:52;;;;;;;31.58;10.60;;;;;;;8.80;100.00;99316.72;4945079;29;20034;-76
2023/03/31 06:30:17;;;;;;;56.67;13.77;;;;;;;8.77;100.00;99303.75;4944800;29;20134;-77
2023/03/31 06:32:42;;;;;;;39.47;12.93;;;;;;;8.71;100.00;99301.88;4942362;28;20047;-79
2023/03/31 06:35:08;;;;;;;37.90;10.73;;;;;;;8.81;100.00;99313.03;4942477;28;20291;-80
2023/03/31 06:37:34;;;;;;;31.50;10.98;;;;;;;8.84;100.00;99309.16;4945270;29;20063;-80
2023/03/31 06:39:59;;;;;;;41.60;12.03;;;;;;;8.84;100.00;99307.31;4936106;29;20128;-79
2023/03/31 06:42:24;;;;;;;48.30;14.50;;;;;;;8.83;100.00;99313.69;4940103;29;20032;-80
2023/03/31 06:44:50;;;;;;;42.00;12.57;;;;;;;8.88;100.00;99313.94;4945858;29;20066;-80
2023/03/31 06:47:15;;;;;;;30.97;11.57;;;;;;;8.80;100.00;99299.91;4936381;29;20390;-78
2023/03/31 06:49:41;;;;;;;43.13;14.23;;;;;;;8.97;100.00;99312.00;4942121;29;20337;-80
2023/03/31 06:52:06;;;;;;;46.23;12.90;;;;;;;8.96;100.00;99305.00;4945192;29;20870;-79
2023/03/31 06:54:31;;;;;;;35.77;13.30;;;;;;;9.13;100.00;99300.31;4945007;28;20508;-77
2023/03/31 06:56:57;;;;;;;32.87;12.00;;;;;;;9.06;100.00;99286.91;4942515;29;20056;-75
2023/03/31 06:59:22;;;;;;;37.77;11.97;;;;;;;9.14;100.00;99283.31;4936777;29;20287;-79
2023/03/31 07:01:49;;;;;;;38.60;14.23;;;;;;;9.21;100.00;99291.38;4945296;28;20545;-78
2023/03/31 07:04:15;;;;;;;29.45;13.52;;;;;;;9.30;100.00;99284.91;4928981;29;20118;-80
2023/03/31 07:06:40;;;;;;;38.72;14.57;;;;;;;9.36;100.00;99291.31;4923919;29;20183;-80
2023/03/31 07:09:05;;;;;;;34.65;13.85;;;;;;;9.39;100.00;99285.59;4929576;29;20040;-80
2023/03/31 07:11:31;;;;;;;40.20;14.30;;;;;;;9.39;100.00;99277.59;4937959;29;20032;-80
2023/03/31 07:13:56;;;;;;;33.28;13.65;;;;;;;9.35;100.00;99261.19;4946315;28;20122;-76
2023/03/31 07:16:22;;;;;;;35.43;13.40;;;;;;;9.35;100.00;99261.19;4921991;29;20055;-76
2023/03/31 07:18:49;;;;;;;28.73;14.35;;;;;;;9.53;100.00;99279.38;4943129;28;20478;-81
2023/03/31 07:21:14;;;;;;;38.70;16.13;;;;;;;9.70;100.00;99261.28;4920409;29;20036;-78
2023/03/31 07:23:40;;;;;;;40.72;14.13;;;;;;;9.61;100.00;99255.25;4930331;29;20039;-78
2023/03/31 07:26:06;;;;;;;39.00;16.67;;;;;;;9.66;100.00;99252.84;4946515;29;20098;-81
2023/03/31 07:28:31;;;;;;;;;;;;;;;9.72;100.00;99252.06;4936463;29;20032;-76
2023/03/31 07:30:57;;;;;;;28.50;14.45;;;;;;;9.81;100.00;99255.44;4933449;29;19926;-77
2023/03/31 07:33:22;;;;;;;44.30;14.13;;;;;;;9.82;100.00;99250.91;4924404;29;20375;-79
2023/03/31 07:35:48;;;;;;;36.30;14.57;;;;;;;9.85;100.00;99242.53;4943212;29;20036;-80
2023/03/31 07:38:13;;;;;;;26.57;12.37;;;;;;;9.60;100.00;99232.31;4922485;29;20067;-79
2023/03/31 07:40:44;;;;;;;30.50;12.87;;;;;;;9.70;100.00;99238.13;4944095;29;20630;-79
2023/03/31 07:43:10;;;;;;;29.13;14.18;;;;;;;9.72;100.00;99237.94;4946260;28;20028;-80
2023/03/31 07:45:38;;;;;;;32.53;13.50;;;;;;;9.79;100.00;99232.66;4929306;29;20091;-79
2023/03/31 07:48:03;;;;;;;28.67;13.07;;;;;;;9.88;100.00;99239.47;4949497;29;20036;-79
2023/03/31 07:50:29;;;;;;;37.80;14.05;;;;;;;9.97;100.00;99227.63;4925476;29;20063;-79
2023/03/31 07:52:56;;;;;;;32.58;12.57;;;;;;;10.06;100.00;99223.78;4951572;28;20505;-79
2023/03/31 07:55:22;;;;;;;32.37;13.27;;;;;;;10.28;100.00;99223.72;4936723;29;20031;-79
2023/03/31 07:57:48;;;;;;;;;;;;;;;10.07;100.00;99201.44;4932364;29;20344;-78
2023/03/31 08:00:14;;;;;;;29.73;12.77;;;;;;;10.13;100.00;99199.81;4951500;29;19970;-78
2023/03/31 08:02:44;;;;;;;42.50;13.40;;;;;;;10.15;100.00;99192.47;4957638;28;20028;-79
2023/03/31 08:05:11;;;;;;;33.20;13.18;;;;;;;10.37;100.00;99195.84;4943616;29;20019;-78
2023/03/31 08:07:38;;;;;;;32.88;14.13;;;;;;;10.97;100.00;99190.72;4952517;29;20833;-76
2023/03/31 08:10:07;;;;;;;30.38;10.80;;;;;;;11.29;100.00;99183.75;4948162;29;20032;-78
2023/03/31 08:12:32;;;;;;;30.70;11.90;;;;;;;11.64;100.00;99164.03;4947192;28;20067;-77
2023/03/31 08:14:58;;;;;;;29.00;11.73;;;;;;;11.74;100.00;99138.47;4950290;28;20036;-78
2023/03/31 08:17:23;;;;;;;29.25;11.02;;;;;;;12.01;100.00;99141.09;4935373;29;20441;-78
2023/03/31 08:19:50;;;;;;;28.83;11.00;;;;;;;12.01;100.00;99091.13;4948871;28;20043;-78
2023/03/31 08:22:15;;;;;;;27.45;11.13;;;;;;;11.89;100.00;99052.69;4946388;29;20426;-79
2023/03/31 08:24:41;;;;;;;22.00;9.77;;;;;;;11.68;100.00;99020.88;4942216;29;20032;-80
2023/03/31 08:27:06;;;;;;;35.70;11.70;;;;;;;11.68;100.00;99010.19;4948206;29;20313;-75
2023/03/31 08:29:31;;;;;;;28.53;12.20;;;;;;;12.02;100.00;99014.38;4948899;29;20032;-75
2023/03/31 08:31:57;;;;;;;32.67;11.23;;;;;;;11.96;100.00;98975.09;4951622;28;20039;-77
2023/03/31 08:34:22;;;;;;;27.33;11.40;;;;;;;11.71;100.00;98937.59;4939540;29;20107;-77
2023/03/31 08:36:47;;;;;;;26.90;12.10;;;;;;;11.42;100.00;98921.06;4936724;29;20043;-79
2023/03/31 08:39:13;;;;;;;31.97;11.40;;;;;;;11.43;100.00;98953.97;4939320;29;20038;-79
2023/03/31 08:41:59;;;;;;;20.90;11.50;;;;;;;11.63;100.00;98965.38;4943856;28;20462;-78
2023/03/31 08:44:39;;;;;;;35.88;13.10;;;;;;;11.75;100.00;98969.03;4916179;29;20044;-77
2023/03/31 08:47:09;;;;;;;26.20;11.48;;;;;;;11.71;100.00;98946.44;4946708;29;20449;-78
2023/03/31 08:49:51;;;;;;;32.42;11.98;;;;;;;11.65;100.00;98936.56;4945306;29;20034;-77
2023/03/31 08:52:45;;;;;;;28.55;12.00;;;;;;;11.51;100.00;98924.31;4927133;29;20085;-74
2023/03/31 08:55:16;;;;;;;31.58;12.77;;;;;;;11.39;100.00;98942.88;4923573;29;20043;-80
2023/03/31 08:57:55;;;;;;;39.42;12.95;;;;;;;11.46;100.00;98950.84;4924867;29;20036;-75
2023/03/31 09:00:21;;;;;;;34.20;13.60;;;;;;;11.52;100.00;98961.53;4929530;29;20177;-78
2023/03/31 09:03:10;;;;;;;27.93;12.13;;;;;;;11.54;100.00;98971.97;4938672;28;20024;-78
2023/03/31 09:05:48;;;;;;;24.90;12.43;;;;;;;11.55;100.00;98960.28;4948671;29;20040;-79
2023/03/31 09:08:35;;;;;;;30.08;12.15;;;;;;;11.55;100.00;98946.91;4923498;29;20024;-77
2023/03/31 09:11:31;;;;;;;32.35;13.45;;;;;;;11.09;100.00;98921.19;4946065;29;20049;-79
2023/03/31 09:14:12;;;;;;;38.38;14.02;;;;;;;11.16;100.00;98960.19;4943570;28;20044;-75
2023/03/31 09:16:58;;;;;;;30.40;13.30;;;;;;;11.11;100.00;98968.03;4929321;29;20567;-76
2023/03/31 09:19:34;;;;;;;27.98;11.27;;;;;;;11.31;100.00;98994.69;4944591;29;20035;-79
2023/03/31 09:22:01;;;;;;;30.42;13.23;;;;;;;11.27;100.00;98976.63;4940937;28;20288;-78
2023/03/31 09:24:31;;;;;;;24.98;11.27;;;;;;;10.90;100.00;98965.59;4941370;28;20086;-77
2023/03/31 09:27:02;;;;;;;34.95;12.32;;;;;;;11.10;100.00;98995.78;4934639;29;20044;-76
2023/03/31 09:29:42;;;;;;;31.88;13.73;;;;;;;11.02;100.00;98987.16;4916027;29;20044;-77
2023/03/31 09:32:23;;;;;;;36.75;13.82;;;;;;;10.57;100.00;98964.59;4919875;29;20273;-78
2023/03/31 09:34:56;;;;;;;28.75;13.40;;;;;;;10.68;100.00;99013.06;4933506;29;20122;-79
2023/03/31 09:37:26;;;;;;;41.65;15.45;;;;;;;10.89;100.00;99036.88;4935312;29;20183;-75
2023/03/31 09:39:51;;;;;;;23.05;13.68;;;;;;;10.84;100.00;99001.13;4932783;29;20120;-76
2023/03/31 09:42:18;;;;;;;34.97;14.07;;;;;;;11.04;100.00;98977.09;4927951;29;20126;-75
2023/03/31 09:44:46;;;;;;;26.50;12.85;;;;;;;11.32;100.00;98958.09;4943070;29;20283;-78
2023/03/31 09:47:30;;;;;;;31.95;14.13;;;;;;;11.42;100.00;98907.69;4936022;28;20470;-76
2023/03/31 09:49:56;;;;;;;28.00;13.10;;;;;;;11.80;100.00;98909.56;4935229;29;20324;-79
2023/03/31 09:52:29;;;;;;;31.67;14.60;;;;;;;11.83;100.00;98850.31;4940887;28;20441;-75
2023/03/31 09:54:59;;;;;;;28.95;13.90;;;;;;;12.08;100.00;98823.63;4940533;29;20044;-77
2023/03/31 09:57:28;;;;;;;31.20;13.23;;;;;;;12.01;100.00;98748.78;4926961;29;20079;-79
2023/03/31 10:00:06;;;;;;;28.73;13.90;;;;;;;12.10;100.00;98769.88;4940482;29;20568;-77
2023/03/31 10:02:40;;;;;;;28.50;13.10;;;;;;;12.33;100.00;98820.09;4916078;29;20040;-80
2023/03/31 10:05:17;;;;;;;27.05;12.60;;;;;;;12.24;100.00;98721.41;4943172;29;20027;-79
2023/03/31 10:07:42;;;;;;;24.20;12.15;;;;;;;11.99;100.00;98637.72;4939173;28;20031;-79
2023/03/31 10:10:32;;;;;;;21.70;12.17;;;;;;;11.86;100.00;98638.63;4934503;29;20066;-80
2023/03/31 10:13:01;;;;;;;20.25;11.82;;;;;;;11.68;100.00;98660.81;4924797;29;20044;-77
2023/03/31 10:15:27;;;;;;;25.40;13.60;;;;;;;11.43;100.00;98692.13;4922478;29;20023;-75
2023/03/31 10:17:53;;;;;;;35.60;14.20;;;;;;;11.35;100.00;98786.69;4916686;29;20032;-79
2023/03/31 10:20:32;;;;;;;29.67;13.10;;;;;;;11.43;100.00;98868.47;4932187;29;20036;-78
2023/03/31 10:23:14;;;;;;;29.77;14.20;;;;;;;11.54;100.00;98894.47;4931361;29;20044;-79
2023/03/31 10:25:39;;;;;;;24.70;13.60;;;;;;;11.05;100.00;98907.44;4918377;29;20027;-77
2023/03/31 10:28:05;;;;;;;34.37;18.20;;;;;;;10.90;100.00;98981.63;4939800;29;20501;-79
2023/03/31 10:30:36;;;;;;;42.13;19.50;;;;;;;10.73;100.00;99031.94;4941953;29;20035;-78
2023/03/31 10:33:16;;;;;;;39.85;16.98;;;;;;;10.60;100.00;99094.13;4943247;28;20094;-76
2023/03/31 10:35:42;;;;;;;36.72;19.77;;;;;;;10.17;100.00;99105.06;4941578;28;20526;-75
2023/03/31 10:38:25;;;;;;;33.80;18.70;;;;;;;10.44;100.00;99158.53;4940666;29;20040;-78
2023/03/31 10:40:53;;;;;;;29.50;16.70;;;;;;;10.12;100.00;99145.69;4925151;29;20045;-77
2023/03/31 10:43:25;;;;;;;38.50;16.38;;;;;;;10.08;100.00;99165.75;4937484;29;20441;-76
2023/03/31 10:45:55;;;;;;;21.13;14.40;;;;;;;10.15;100.00;99182.59;4937582;29;20048;-75
2023/03/31 10:48:26;;;;;;;18.98;12.13;;;;;;;10.18;100.00;99176.03;4936912;29;20103;-77
2023/03/31 10:50:51;;;;;;;22.90;11.98;;;;;;;10.17;100.00;99168.25;4942647;29;20384;-75
2023/03/31 10:53:18;;;;;;;18.10;10.40;;;;;;;10.15;100.00;99158.59;4951910;28;20046;-75
2023/03/31 10:56:16;;;;;;;19.85;11.27;;;;;;;10.32;100.00;99169.81;4927985;29;20480;-78
2023/03/31 10:59:20;;;;;;;15.65;9.60;;;;;;;10.51;100.00;99173.56;4937197;29;20059;-76
2023/03/31 11:02:23;;;;;;;15.93;9.93;;;;;;;10.47;100.00;99158.97;4948563;29;20383;-78
2023/03/31 11:04:54;;;;;;;16.65;9.27;;;;;;;10.57;100.00;99148.72;4933062;29;20036;-79
2023/03/31 11:07:39;;;;;;;13.82;8.80;;;;;;;10.59;100.00;99140.53;4918067;29;20557;-78
2023/03/31 11:10:32;;;;;;;12.18;7.45;;;;;;;10.49;100.00;99119.56;4936908;29;20524;-78
2023/03/31 11:13:12;;;;;;;15.25;8.90;;;;;;;10.63;100.00;99131.09;4941548;28;20073;-78
2023/03/31 11:16:02;;;;;;;12.75;8.10;;;;;;;10.97;100.00;99122.09;4934013;29;20417;-79
2023/03/31 11:19:05;;;;;;;13.82;8.35;;;;;;;10.96;100.00;99111.63;4942123;28;20394;-77
2023/03/31 11:21:49;;;;;;;14.70;8.68;;;;;;;11.43;100.00;99124.97;4936257;29;20038;-79
2023/03/31 11:24:26;;;;;;;15.55;8.65;;;;;;;11.43;100.00;99082.22;4939387;29;20027;-79
2023/03/31 11:27:24;;;;;;;15.32;8.48;;;;;;;11.64;100.00;99057.91;4936885;29;20446;-77
2023/03/31 11:30:06;;;;;;;14.82;8.38;;;;;;;11.55;100.00;99014.53;4947342;29;20047;-79
2023/03/31 11:33:06;;;;;;;11.77;8.68;;;;;;;11.68;100.00;99008.31;4937440;29;20052;-75
2023/03/31 11:35:53;;;;;;;15.57;8.95;;;;;;;11.05;100.00;98968.88;4931624;29;20142;-75
2023/03/31 11:38:46;;;;;;;14.05;9.02;;;;;;;11.12;100.00;99014.22;4946267;29;20039;-78